Time;durP1;ratioP1;P1;durP2;ratioP2;P2;SDS_P1;SDS_P2;PMS_P1;PMS_P2;Temp;Humidity;BMP_temperature;BMP_pressure;BME280_temperature;BME280_humidity;BME280_pressure;Samples;Min_cycle;Max_cycle;Signal;HPM_P1;HPM_P2
2021/11/26 01:19:29;;;;;;;;;7.67;7.67;;;;;7.50;63.77;100776.47;5526127;23;46562;-96
2021/11/26 01:21:55;;;;;;;;;11.00;8.67;;;;;7.44;63.89;100771.81;4974806;28;44774;-96
2021/11/26 01:24:21;;;;;;;;;9.67;8.00;;;;;7.20;63.79;100740.84;4958216;28;45276;-96
2021/11/26 01:34:41;;;;;;;;;13.00;8.00;;;;;7.06;63.87;100724.34;4970169;23;45552;-96
2021/11/26 02:36:57;;;;;;;;;9.00;8.00;;;;;6.61;64.75;100646.94;5833554;23;46459;-96
2021/11/26 02:47:06;;;;;;;;;9.00;9.00;;;;;6.54;65.22;100626.53;5355857;23;45442;-96
2021/11/26 02:49:36;;;;;;;;;9.00;8.33;;;;;6.67;65.06;100649.03;5192572;23;47568;-96
2021/11/26 02:52:02;;;;;;;;;11.00;9.67;;;;;6.53;65.36;100622.09;4957964;28;45299;-96
2021/11/26 02:54:30;;;;;;;;;10.50;4.50;;;;;6.73;64.96;100651.06;4925634;28;44712;-96
2021/11/26 03:09:52;;;;;;;;;11.00;8.00;;;;;6.59;64.92;100628.59;5284802;23;47052;-96
2021/11/26 03:20:04;;;;;;;;;9.67;8.00;;;;;6.40;65.00;100623.97;4951612;28;45849;-96
2021/11/26 03:22:29;;;;;;;;;16.67;11.67;;;;;6.18;64.98;100587.88;4938284;28;45585;-96
2021/11/26 03:24:56;;;;;;;;;12.00;12.00;;;;;6.12;65.14;100577.97;4957099;28;44883;-96
2021/11/26 03:30:04;;;;;;;;;14.25;11.25;;;;;6.00;65.16;100559.88;4971742;26;45104;-96
2021/11/26 03:32:30;;;;;;;;;12.25;10.50;;;;;5.91;65.21;100548.06;4954823;28;45437;-96
2021/11/26 03:34:55;;;;;;;;;17.00;11.67;;;;;6.14;65.56;100586.78;4952169;28;44853;-96
2021/11/26 03:39:56;;;;;;;;;10.00;10.00;;;;;6.01;65.46;100561.66;5932786;23;45994;-96
2021/11/26 03:42:22;;;;;;;;;11.25;10.25;;;;;5.85;65.72;100531.19;4917553;28;44870;-96
2021/11/26 03:44:55;;;;;;;;;12.00;10.25;;;;;5.96;65.83;100557.88;5032226;23;45784;-96
2021/11/26 03:50:23;;;;;;;;;11.00;11.00;;;;;5.97;65.75;100571.00;5927348;23;46313;-96
2021/11/26 03:53:01;;;;;;;;;11.25;10.50;;;;;5.81;65.88;100551.81;4928975;28;46208;-96
2021/11/26 04:25:12;;;;;;;;;17.00;12.75;;;;;5.85;66.74;100502.53;5395446;23;45885;-96
2021/11/26 04:27:37;;;;;;;;;13.75;12.25;;;;;5.76;66.84;100477.72;4969223;28;45264;-96
2021/11/26 04:38:37;;;;;;;;;15.00;14.25;;;;;5.81;66.45;100446.72;4978864;28;44655;-96
2021/11/26 04:46:13;;;;;;;;;17.00;14.25;;;;;6.01;66.56;100480.88;5044142;23;44924;-96
2021/11/26 04:56:26;;;;;;;;;16.00;11.50;;;;;5.86;66.30;100450.50;5615284;23;46277;-96
2021/11/26 05:14:25;;;;;;;;;16.00;13.00;;;;;5.93;66.46;100416.19;5632338;23;46240;-96
2021/11/26 05:16:51;;;;;;;;;15.50;12.00;;;;;5.93;66.59;100416.19;4959580;28;45364;-96
2021/11/26 05:24:32;;;;;;;;;12.00;10.75;;;;;5.92;66.89;100390.97;5554850;23;46024;-96
2021/11/26 05:37:23;;;;;;;;;10.50;10.50;;;;;6.13;66.65;100384.34;4972131;28;45435;-96
2021/11/26 05:45:04;;;;;;;;;15.50;11.00;;;;;6.29;66.63;100400.84;5360305;23;45402;-94
2021/11/26 06:21:02;;;;;;;;;13.25;10.00;;;;;6.02;66.51;100329.84;4958723;28;45473;-96
2021/11/26 06:28:38;;;;;;;;;10.75;9.00;;;;;6.12;66.45;100319.97;5767201;23;46373;-96
2021/11/26 06:31:03;;;;;;;;;13.50;11.00;;;;;6.10;66.30;100306.88;4944355;28;45510;-96
2021/11/26 06:34:12;;;;;;;;;16.75;13.75;;;;;6.06;66.17;100293.53;4948173;28;45462;-96
2021/11/26 06:39:33;;;;;;;;;10.75;10.75;;;;;6.11;66.18;100287.81;5513966;23;46441;-96
2021/11/26 06:41:59;;;;;;;;;9.75;9.75;;;;;6.19;66.05;100306.47;4943994;28;45471;-96
2021/11/26 06:44:24;;;;;;;;;12.75;11.25;;;;;6.16;65.87;100297.59;4935313;28;45674;-96
2021/11/26 06:46:50;;;;;;;;;13.50;12.25;;;;;6.16;65.80;100288.06;4943481;28;48523;-96
2021/11/26 06:49:15;;;;;;;;;12.25;11.75;;;;;6.18;65.45;100285.56;4942539;28;45366;-96
2021/11/26 06:51:40;;;;;;;;;10.50;10.50;;;;;6.11;65.92;100268.66;4942703;28;45061;-95
2021/11/26 06:54:06;;;;;;;;;11.25;10.25;;;;;6.02;66.05;100246.47;4943547;28;45399;-96
2021/11/26 06:56:31;;;;;;;;;11.50;10.25;;;;;6.19;65.49;100275.19;4942663;28;48431;-96
2021/11/26 06:58:59;;;;;;;;;11.75;11.00;;;;;6.11;65.95;100260.84;4942595;28;45551;-96
2021/11/26 07:01:26;;;;;;;;;12.75;10.50;;;;;6.08;65.90;100245.06;4942765;28;45300;-96
2021/11/26 07:03:51;;;;;;;;;13.25;10.00;;;;;5.96;65.90;100221.75;4942491;28;45398;-96
2021/11/26 07:06:16;;;;;;;;;11.00;9.50;;;;;6.08;65.80;100245.06;4942794;28;48066;-96
2021/11/26 07:08:42;;;;;;;;;11.75;10.50;;;;;6.01;66.23;100231.63;4942887;28;46146;-96
2021/11/26 07:11:07;;;;;;;;;12.75;10.25;;;;;6.06;65.66;100236.19;4943243;28;45257;-96
2021/11/26 07:13:35;;;;;;;;;12.75;10.75;;;;;6.03;65.51;100227.41;4943508;28;45739;-95
2021/11/26 07:16:01;;;;;;;;;12.00;10.00;;;;;6.04;65.52;100224.00;4943316;28;47128;-94
2021/11/26 07:18:26;;;;;;;;;12.00;8.00;;;;;6.14;65.84;100237.56;4941672;28;45926;-94
2021/11/26 07:20:51;;;;;;;;;11.50;10.75;;;;;6.09;65.36;100219.06;4941840;28;45354;-94
2021/11/26 07:23:17;;;;;;;;;12.00;10.25;;;;;6.02;65.78;100196.97;4944860;28;45553;-93
2021/11/26 07:25:42;;;;;;;;;11.00;10.50;;;;;6.14;65.69;100215.00;4948767;28;47192;-87
2021/11/26 07:28:08;;;;;;;;;15.25;9.00;;;;;6.18;65.28;100213.47;4957128;28;45338;-85
2021/11/26 07:30:33;;;;;;;;;13.00;11.50;;;;;6.14;65.57;100203.69;4957073;28;45664;-87
2021/11/26 07:33:00;;;;;;;;;10.00;10.00;;;;;6.19;65.51;100202.22;4952584;28;45506;-86
2021/11/26 07:35:25;;;;;;;;;7.75;6.00;;;;;6.26;64.87;100208.69;4934151;28;46082;-84
2021/11/26 07:37:51;;;;;;;;;10.00;6.50;;;;;6.28;65.29;100200.94;4936476;28;45466;-85
2021/11/26 07:40:17;;;;;;;;;11.25;10.25;;;;;6.27;65.06;100197.44;4952182;28;46544;-84
2021/11/26 07:42:43;;;;;;;;;16.50;11.25;;;;;6.34;65.25;100198.69;4953427;28;45539;-85
2021/11/26 07:45:11;;;;;;;;;11.50;10.25;;;;;6.35;65.52;100192.63;4951705;28;45848;-85
2021/11/26 07:47:38;;;;;;;;;11.50;10.25;;;;;6.40;65.39;100180.75;4935989;28;45455;-85
2021/11/26 07:50:04;;;;;;;;;9.25;9.00;;;;;6.47;65.07;100190.66;4951691;28;45515;-85
2021/11/26 07:52:30;;;;;;;;;10.50;10.50;;;;;6.51;64.41;100186.53;4949722;28;45483;-84
2021/11/26 07:54:55;;;;;;;;;21.25;13.25;;;;;6.55;64.65;100187.56;4952707;28;45493;-85
2021/11/26 07:57:20;;;;;;;;;10.50;8.75;;;;;6.57;64.92;100180.75;4934209;28;45475;-85
2021/11/26 07:59:46;;;;;;;;;11.25;11.00;;;;;6.64;64.98;100179.34;4950553;28;45431;-85
2021/11/26 08:02:11;;;;;;;;;14.00;9.25;;;;;6.65;64.77;100163.75;4935412;28;46914;-88
2021/11/26 08:04:37;;;;;;;;;11.75;10.00;;;;;6.68;64.45;100163.94;4934733;28;47364;-86
2021/11/26 08:07:02;;;;;;;;;14.50;12.00;;;;;6.75;64.24;100161.66;4951289;28;45283;-86
2021/11/26 08:09:27;;;;;;;;;14.50;8.00;;;;;6.75;64.02;100146.88;4947438;28;45865;-86
2021/11/26 08:11:54;;;;;;;;;10.75;7.75;;;;;6.75;63.90;100135.56;4951978;28;45247;-85
2021/11/26 08:14:19;;;;;;;;;7.00;7.00;;;;;6.76;64.02;100133.03;4949351;28;45446;-85
2021/11/26 08:16:47;;;;;;;;;9.75;9.75;;;;;6.75;63.81;100133.81;4948347;28;45524;-85
2021/11/26 08:19:12;;;;;;;;;13.25;10.25;;;;;6.79;63.50;100137.50;4943197;28;45415;-85
2021/11/26 08:21:39;;;;;;;;;10.00;9.50;;;;;6.77;63.40;100131.31;4936377;28;45620;-85
2021/11/26 08:24:06;;;;;;;;;7.75;7.75;;;;;6.79;63.00;100129.69;4950138;28;46451;-84
2021/11/26 08:26:31;;;;;;;;;7.00;7.00;;;;;6.84;62.35;100122.06;4949520;28;45797;-84
2021/11/26 08:28:57;;;;;;;;;10.67;9.33;;;;;6.80;62.70;100116.69;4939823;28;45433;-84
2021/11/26 08:31:23;;;;;;;;;7.00;6.75;;;;;6.79;63.21;100112.31;4950175;28;45535;-85
2021/11/26 08:33:48;;;;;;;;;9.00;6.67;;;;;6.80;63.18;100119.31;4952330;28;45604;-85
2021/11/26 08:36:14;;;;;;;;;7.50;7.25;;;;;6.78;62.82;100109.59;4950730;28;45495;-85
2021/11/26 08:38:39;;;;;;;;;7.00;3.00;;;;;6.82;62.32;100120.31;4949792;28;45593;-84
2021/11/26 08:41:04;;;;;;;;;6.00;6.00;;;;;6.86;62.07;100110.00;4931958;28;45521;-84
2021/11/26 08:43:30;;;;;;;;;9.33;7.33;;;;;6.86;62.75;100108.28;4948394;28;46445;-83
2021/11/26 08:45:55;;;;;;;;;6.67;6.00;;;;;6.92;63.21;100108.63;4932591;28;45331;-85
2021/11/26 08:48:21;;;;;;;;;8.50;7.00;;;;;7.00;62.28;100101.16;4934605;28;45458;-88
2021/11/26 08:50:46;;;;;;;;;4.67;3.33;;;;;7.10;63.11;100114.66;4930855;28;45704;-88
2021/11/26 08:53:12;;;;;;;;;4.33;4.33;;;;;7.14;62.78;100106.16;4948821;28;45388;-86
2021/11/26 08:55:39;;;;;;;;;10.33;6.00;;;;;7.16;62.43;100101.94;4951833;28;45529;-87
2021/11/26 08:58:07;;;;;;;;;9.25;8.50;;;;;7.26;62.57;100117.22;4948720;28;45587;-86
2021/11/26 09:00:35;;;;;;;;;10.67;7.67;;;;;7.34;62.15;100114.97;4935343;28;45601;-86
2021/11/26 09:03:03;;;;;;;;;11.75;8.75;;;;;7.44;62.36;100113.69;4949017;28;46415;-86
2021/11/26 09:05:29;;;;;;;;;11.25;8.00;;;;;7.51;62.25;100093.06;4954479;28;45347;-87
2021/11/26 09:08:00;;;;;;;;;8.00;6.67;;;;;7.47;61.35;100081.63;4953890;28;45553;-87
2021/11/26 09:10:27;;;;;;;;;8.00;6.00;;;;;7.44;61.56;100077.13;4953911;28;45398;-88
2021/11/26 09:12:52;;;;;;;;;6.67;6.00;;;;;7.43;61.01;100069.22;4953255;28;46651;-87
2021/11/26 09:15:18;;;;;;;;;6.00;6.00;;;;;7.38;61.12;100067.28;4955337;28;45463;-88
2021/11/26 09:17:44;;;;;;;;;8.67;6.33;;;;;7.38;60.76;100053.34;4950458;28;45505;-87
2021/11/26 09:20:10;;;;;;;;;6.33;6.00;;;;;7.48;60.54;100046.81;4952079;28;45555;-87
2021/11/26 09:22:37;;;;;;;;;6.00;6.00;;;;;7.60;60.29;100036.06;4954249;28;45390;-88
2021/11/26 09:25:04;;;;;;;;;4.33;4.33;;;;;7.80;59.83;100038.69;4943703;28;45493;-88
2021/11/26 09:27:30;;;;;;;;;7.00;7.00;;;;;7.92;60.33;100035.72;4949687;28;45475;-86
2021/11/26 09:29:55;;;;;;;;;9.00;6.00;;;;;8.02;60.65;100019.63;4946113;28;45378;-87
2021/11/26 09:32:21;;;;;;;;;6.00;6.00;;;;;8.16;60.24;100015.00;4944247;28;46447;-88
2021/11/26 09:34:47;;;;;;;;;8.33;6.33;;;;;8.24;59.81;99998.75;4947298;28;45324;-85
2021/11/26 09:37:13;;;;;;;;;7.00;4.00;;;;;8.31;59.05;99982.50;4938725;28;45381;-85
2021/11/26 09:39:38;;;;;;;;;8.00;6.00;;;;;8.52;58.09;99985.94;4955682;28;45309;-86
2021/11/26 09:42:04;;;;;;;;;5.33;3.00;;;;;8.68;58.92;99984.91;4951438;28;46694;-86
2021/11/26 09:44:33;;;;;;;;;6.33;4.00;;;;;8.80;57.99;99981.88;4934001;28;45553;-86
2021/11/26 09:46:59;;;;;;;;;4.00;4.00;;;;;8.86;58.64;99961.19;4937222;28;45351;-87
2021/11/26 09:49:24;;;;;;;;;4.00;4.00;;;;;9.01;57.38;99966.13;4935847;28;45664;-86
2021/11/26 09:51:50;;;;;;;;;3.33;3.33;;;;;9.07;57.02;99951.50;4953258;28;46465;-86
2021/11/26 09:54:16;;;;;;;;;4.00;4.00;;;;;9.13;57.00;99946.47;4954816;28;45430;-86
2021/11/26 09:56:42;;;;;;;;;5.00;2.33;;;;;9.09;56.47;99945.50;4951510;28;45449;-87
2021/11/26 09:59:08;;;;;;;;;2.33;2.33;;;;;8.99;56.20;99941.63;4947719;28;46535;-86
2021/11/26 10:01:33;;;;;;;;;4.00;4.00;;;;;8.88;56.56;99933.34;4933943;28;46991;-87
2021/11/26 10:03:59;;;;;;;;;2.67;2.67;;;;;8.85;55.81;99943.69;4934967;28;45430;-86
2021/11/26 10:06:37;;;;;;;;;2.67;2.67;;;;;8.77;56.41;99935.53;4953283;28;45378;-86
2021/11/26 10:09:07;;;;;;;;;1.67;1.67;;;;;8.67;55.87;99926.44;4950593;28;45734;-87
2021/11/26 10:11:39;;;;;;;;;2.00;2.00;;;;;8.56;56.25;99915.50;4951663;28;49786;-86
2021/11/26 10:14:26;;;;;;;;;2.00;2.00;;;;;8.50;55.65;99904.81;4934881;28;46194;-86
2021/11/26 10:17:17;;;;;;;;;3.00;2.00;;;;;8.44;56.31;99894.97;4952077;28;45918;-86
2021/11/26 10:19:47;;;;;;;;;6.00;3.00;;;;;8.41;54.64;99891.34;4951899;28;45687;-86
2021/11/26 10:22:28;;;;;;;;;2.67;1.67;;;;;8.39;55.49;99883.44;4932151;28;47236;-86
2021/11/26 10:25:08;;;;;;;;;2.00;2.00;;;;;8.45;56.15;99881.06;4932763;28;45413;-87
2021/11/26 10:27:40;;;;;;;;;1.00;1.00;;;;;8.52;55.65;99866.53;4953411;28;45411;-86
2021/11/26 10:30:20;;;;;;;;;2.67;2.67;;;;;8.59;55.06;99860.72;4952320;28;45567;-86
2021/11/26 10:33:05;;;;;;;;;4.00;2.00;;;;;8.63;53.55;99842.53;4949736;28;46046;-86
2021/11/26 10:35:37;;;;;;;;;4.00;3.00;;;;;8.68;54.47;99852.34;4934602;28;45712;-87
2021/11/26 10:38:08;;;;;;;;;1.33;1.33;;;;;8.76;54.70;99855.25;4949031;28;45402;-86
2021/11/26 10:40:36;;;;;;;;;4.00;2.00;;;;;8.81;54.85;99842.34;4922476;28;45572;-86
2021/11/26 10:43:05;;;;;;;;;2.00;2.00;;;;;8.84;54.71;99834.59;4944776;28;46686;-86
2021/11/26 10:45:56;;;;;;;;;4.00;3.00;;;;;8.89;53.74;99848.75;4936464;28;45981;-86
2021/11/26 10:52:47;;;;;;;;;3.00;3.00;;;;;9.01;53.82;99823.88;4952276;28;45650;-86
2021/11/26 11:00:12;;;;;;;;;7.67;3.00;;;;;8.87;53.85;99789.34;4951982;28;45360;-86
2021/11/26 11:02:41;;;;;;;;;6.00;2.00;;;;;8.84;53.51;99784.88;4946292;28;45463;-86
2021/11/26 11:05:10;;;;;;;;;3.67;3.67;;;;;8.86;54.07;99780.63;4937140;28;46006;-86
2021/11/26 11:07:43;;;;;;;;;8.00;2.00;;;;;8.97;54.50;99778.38;4940180;28;45453;-86
2021/11/26 11:10:13;;;;;;;;;5.67;3.00;;;;;9.10;53.77;99755.25;4952513;28;45678;-86
2021/11/26 11:12:39;;;;;;;;;6.33;4.00;;;;;9.15;53.42;99751.06;4953946;28;45586;-85
2021/11/26 11:15:10;;;;;;;;;3.67;3.00;;;;;9.06;53.28;99743.78;4954477;28;45731;-86
2021/11/26 11:17:37;;;;;;;;;7.00;3.67;;;;;9.04;54.01;99733.28;4936234;28;45672;-87
2021/11/26 11:20:10;;;;;;;;;2.67;2.67;;;;;9.15;53.76;99707.44;4932860;28;45841;-86
2021/11/26 11:22:36;;;;;;;;;7.67;6.67;;;;;9.22;54.33;99699.81;4963051;28;45832;-87
2021/11/26 11:25:04;;;;;;;;;4.33;3.33;;;;;9.23;53.51;99696.34;4951680;28;45577;-86
2021/11/26 11:27:30;;;;;;;;;4.00;4.00;;;;;9.27;54.42;99680.81;4933321;28;45356;-87
2021/11/26 11:29:56;;;;;;;;;5.67;5.67;;;;;9.42;54.55;99681.25;4950800;28;45447;-88
2021/11/26 11:32:21;;;;;;;;;4.33;3.00;;;;;9.52;53.76;99674.56;4949601;28;45431;-85
2021/11/26 11:34:48;;;;;;;;;4.67;4.67;;;;;9.58;54.02;99670.44;4932655;28;47107;-86
2021/11/26 11:37:18;;;;;;;;;3.50;3.50;;;;;9.64;53.05;99664.47;4929619;28;45415;-87
2021/11/26 11:39:51;;;;;;;;;6.00;4.00;;;;;9.61;52.65;99659.16;4949703;28;45581;-87
2021/11/26 11:42:30;;;;;;;;;4.00;3.00;;;;;9.55;53.42;99656.34;4933771;28;45430;-87
2021/11/26 11:45:07;;;;;;;;;3.00;3.00;;;;;9.50;53.71;99645.72;4932962;28;46564;-86
2021/11/26 11:47:32;;;;;;;;;6.00;3.67;;;;;9.44;53.20;99629.78;4951167;28;45481;-87
2021/11/26 11:50:11;;;;;;;;;3.00;2.33;;;;;9.43;53.90;99633.28;4931798;28;45328;-89
2021/11/26 11:52:51;;;;;;;;;6.00;6.00;;;;;9.39;53.50;99625.31;4941589;28;45566;-88
2021/11/26 11:55:18;;;;;;;;;6.33;6.33;;;;;9.29;54.09;99620.63;4921210;28;48313;-87
2021/11/26 11:57:43;;;;;;;;;3.00;3.00;;;;;9.15;54.59;99609.69;4933856;28;45793;-87
2021/11/26 12:00:16;;;;;;;;;3.67;3.00;;;;;9.09;56.04;99607.78;4933240;28;45470;-87
2021/11/26 12:02:43;;;;;;;;;6.33;2.67;;;;;9.06;55.91;99591.94;4949290;28;45686;-88
2021/11/26 12:05:27;;;;;;;;;3.67;3.00;;;;;9.05;56.34;99595.41;4934365;28;47996;-88
2021/11/26 12:08:07;;;;;;;;;8.00;6.67;;;;;9.01;56.61;99572.59;4931755;28;45383;-88
2021/11/26 12:10:48;;;;;;;;;3.33;2.67;;;;;9.02;57.02;99563.91;4936700;28;45487;-88
2021/11/26 12:13:26;;;;;;;;;9.00;6.00;;;;;9.03;56.84;99557.81;4922343;28;45546;-88
2021/11/26 12:16:20;;;;;;;;;3.00;2.67;;;;;8.99;56.84;99554.22;4931015;28;47769;-87
2021/11/26 12:18:48;;;;;;;;;2.33;2.33;;;;;8.97;57.06;99548.03;4931714;28;45980;-85
2021/11/26 12:21:16;;;;;;;;;3.00;2.67;;;;;8.89;56.80;99542.53;4949062;28;45500;-88
2021/11/26 12:24:00;;;;;;;;;4.00;3.00;;;;;8.80;57.62;99527.44;4951086;28;45484;-87
2021/11/26 12:28:56;;;;;;;;;2.67;2.67;;;;;8.67;57.86;99509.56;4950108;28;45487;-90
2021/11/26 12:31:29;;;;;;;;;6.33;3.00;;;;;8.69;58.23;99511.38;4934299;28;45720;-89
2021/11/26 12:34:05;;;;;;;;;5.00;2.00;;;;;8.65;59.14;99508.63;4951566;28;45428;-89
2021/11/26 12:36:44;;;;;;;;;5.33;3.00;;;;;8.67;58.64;99480.78;4935502;28;48058;-89
2021/11/26 12:39:14;;;;;;;;;3.00;3.00;;;;;8.64;59.09;99480.69;4933855;28;45619;-88
2021/11/26 12:41:42;;;;;;;;;7.67;3.67;;;;;8.60;58.91;99464.91;4918962;28;45571;-89
2021/11/26 12:44:21;;;;;;;;;6.67;2.67;;;;;8.63;59.09;99476.31;4927988;28;45466;-89
2021/11/26 12:46:54;;;;;;;;;5.00;5.00;;;;;8.64;58.58;99463.25;4916848;28;47490;-88
2021/11/26 12:51:51;;;;;;;;;4.00;4.00;;;;;8.56;58.77;99422.84;4935177;28;45761;-87
2021/11/26 12:54:33;;;;;;;;;3.33;3.33;;;;;8.53;59.41;99417.53;4938332;28;45434;-86
2021/11/26 12:57:02;;;;;;;;;3.67;2.67;;;;;8.54;59.93;99408.84;4915548;28;47367;-86
2021/11/26 12:59:31;;;;;;;;;7.33;6.00;;;;;8.55;58.79;99384.47;4917898;28;45363;-88
2021/11/26 13:01:57;;;;;;;;;7.00;3.33;;;;;8.50;59.16;99390.41;4910455;28;45509;-88
2021/11/26 13:04:22;;;;;;;;;6.00;3.33;;;;;8.50;58.84;99376.47;4934184;28;45415;-86
2021/11/26 13:06:49;;;;;;;;;4.67;4.67;;;;;8.49;59.24;99364.22;4935799;28;46790;-87
2021/11/26 13:09:14;;;;;;;;;6.33;4.33;;;;;8.48;58.78;99365.06;4933077;28;45880;-87
2021/11/26 13:11:45;;;;;;;;;2.67;2.00;;;;;8.43;58.98;99357.06;4932973;28;45789;-87
2021/11/26 13:14:13;;;;;;;;;6.00;3.00;;;;;8.42;59.57;99352.69;4931375;28;45418;-88
2021/11/26 13:16:39;;;;;;;;;4.00;4.00;;;;;8.31;60.89;99349.75;4915975;28;48025;-86
2021/11/26 13:19:20;;;;;;;;;4.00;4.00;;;;;8.21;61.53;99351.19;4916241;28;45472;-86
2021/11/26 13:21:55;;;;;;;;;3.33;3.33;;;;;8.08;62.09;99313.28;4933893;28;45459;-88
2021/11/26 13:24:21;;;;;;;;;4.00;2.33;;;;;8.02;62.81;99321.81;4935973;28;45616;-87
2021/11/26 13:26:46;;;;;;;;;3.00;3.00;;;;;8.01;61.90;99320.06;4930635;28;48089;-88
2021/11/26 13:29:12;;;;;;;;;2.00;2.00;;;;;7.99;63.66;99313.00;4915985;28;46127;-87
2021/11/26 13:31:43;;;;;;;;;2.67;2.67;;;;;7.99;62.58;99294.72;4933404;28;45450;-87
2021/11/26 13:34:09;;;;;;;;;6.00;4.00;;;;;8.09;62.40;99290.66;4916228;28;45716;-88
2021/11/26 13:36:34;;;;;;;;;4.67;4.67;;;;;8.13;62.44;99282.06;4919315;28;46932;-87
2021/11/26 13:39:11;;;;;;;;;1.67;1.00;;;;;8.14;62.30;99286.47;4932675;28;45590;-87
2021/11/26 13:41:41;;;;;;;;;4.00;4.00;;;;;8.12;62.49;99282.91;4917403;28;45607;-87
2021/11/26 13:44:11;;;;;;;;;6.00;4.00;;;;;8.13;62.08;99272.50;4916034;28;45513;-88
2021/11/26 13:46:39;;;;;;;;;5.00;3.00;;;;;8.10;62.85;99261.97;4929352;28;47194;-88
2021/11/26 13:49:20;;;;;;;;;4.00;4.00;;;;;8.23;62.77;99234.47;4916226;28;45580;-87
2021/11/26 13:51:55;;;;;;;;;4.00;4.00;;;;;8.30;62.82;99232.06;4915672;28;45472;-87
2021/11/26 13:54:28;;;;;;;;;3.33;2.33;;;;;8.41;61.52;99238.47;4934741;28;45590;-87
2021/11/26 13:56:53;;;;;;;;;6.00;3.67;;;;;8.41;61.66;99220.16;4919785;28;47544;-87
2021/11/26 13:59:29;;;;;;;;;2.67;2.67;;;;;8.36;61.92;99211.31;4933220;28;45276;-87
2021/11/26 14:02:13;;;;;;;;;2.00;2.00;;;;;8.31;61.97;99211.19;4913140;28;45591;-87
2021/11/26 14:04:40;;;;;;;;;4.00;4.00;;;;;8.33;62.04;99198.13;4916471;28;45394;-87
2021/11/26 14:07:11;;;;;;;;;4.33;2.00;;;;;8.37;62.26;99208.75;4933104;28;45624;-87
2021/11/26 14:09:38;;;;;;;;;5.67;3.67;;;;;8.40;62.14;99175.69;4918059;28;45492;-87
2021/11/26 14:12:14;;;;;;;;;3.00;3.00;;;;;8.45;61.96;99189.78;4916217;28;45684;-86
2021/11/26 14:14:40;;;;;;;;;2.00;2.00;;;;;8.41;61.24;99170.50;4910068;28;45704;-87
2021/11/26 14:17:05;;;;;;;;;4.67;3.67;;;;;8.39;61.94;99169.56;4923501;28;47400;-86
2021/11/26 14:19:38;;;;;;;;;7.00;6.00;;;;;8.46;61.70;99165.38;4908757;28;45645;-86
2021/11/26 14:22:06;;;;;;;;;4.33;3.00;;;;;8.45;61.58;99151.41;4932252;28;45410;-86
2021/11/26 14:24:53;;;;;;;;;6.67;4.67;;;;;8.44;61.30;99154.91;4932953;28;45450;-87
2021/11/26 14:27:31;;;;;;;;;3.33;3.00;;;;;8.40;61.55;99142.56;4915559;28;47068;-86
2021/11/26 14:30:03;;;;;;;;;3.00;3.00;;;;;8.43;62.02;99129.56;4916392;28;45727;-87
2021/11/26 14:32:29;;;;;;;;;2.00;2.00;;;;;8.35;61.32;99124.13;4918967;28;45357;-86
2021/11/26 14:35:06;;;;;;;;;3.00;3.00;;;;;8.36;61.55;99138.09;4915801;28;45539;-88
2021/11/26 14:37:31;;;;;;;;;4.00;3.00;;;;;8.33;62.00;99128.44;4931096;28;46599;-87
2021/11/26 14:39:56;;;;;;;;;7.00;4.00;;;;;8.31;60.98;99117.06;4934695;28;45468;-87
2021/11/26 14:42:29;;;;;;;;;3.00;3.00;;;;;8.34;61.71;99103.19;4938449;28;45462;-87
2021/11/26 14:44:56;;;;;;;;;4.00;3.67;;;;;8.34;61.73;99106.69;4931960;28;45402;-87
2021/11/26 14:47:30;;;;;;;;;3.33;3.33;;;;;8.29;64.08;99099.56;4933092;28;45488;-87
2021/11/26 14:49:56;;;;;;;;;2.67;2.00;;;;;8.22;63.84;99088.06;4914869;28;45800;-88
2021/11/26 14:52:40;;;;;;;;;4.00;3.33;;;;;8.12;63.65;99077.31;4915828;28;45535;-87
2021/11/26 14:55:05;;;;;;;;;2.67;2.67;;;;;8.12;63.91;99084.25;4933210;28;45432;-87
2021/11/26 14:57:30;;;;;;;;;4.00;4.00;;;;;8.04;63.73;99087.56;4916130;28;47485;-87
2021/11/26 14:59:57;;;;;;;;;6.00;3.00;;;;;8.04;65.18;99082.31;4914688;28;45527;-88
2021/11/26 15:02:26;;;;;;;;;6.67;4.00;;;;;7.98;65.68;99084.78;4916321;28;45530;-93
2021/11/26 15:04:51;;;;;;;;;3.00;3.00;;;;;7.87;66.63;99070.50;4933362;28;45542;-88
2021/11/26 15:07:20;;;;;;;;;3.67;3.00;;;;;7.87;66.47;99075.72;4928611;28;52953;-88
2021/11/26 15:09:47;;;;;;;;;3.33;3.33;;;;;7.78;67.50;99056.31;4929346;28;45431;-88
2021/11/26 15:12:12;;;;;;;;;4.00;4.00;;;;;7.75;66.94;99061.47;4913429;28;45511;-87
2021/11/26 15:14:38;;;;;;;;;4.67;3.00;;;;;7.71;67.91;99064.81;4913194;28;45569;-87
2021/11/26 15:17:04;;;;;;;;;5.00;3.00;;;;;7.67;67.91;99057.75;4914323;28;46923;-86
2021/11/26 15:19:29;;;;;;;;;5.33;4.00;;;;;7.67;68.01;99068.19;4930661;28;45470;-86
2021/11/26 15:21:55;;;;;;;;;3.00;3.00;;;;;7.56;68.07;99058.31;4931047;28;45421;-87
2021/11/26 15:24:20;;;;;;;;;6.00;4.33;;;;;7.51;69.06;99069.44;4915541;28;45480;-88
2021/11/26 15:26:46;;;;;;;;;4.67;4.67;;;;;7.49;71.81;99079.84;4913675;28;49144;-85
2021/11/26 15:29:12;;;;;;;;;6.33;3.67;;;;;7.43;74.05;99050.94;4931545;28;45425;-87
2021/11/26 15:31:39;;;;;;;;;8.00;7.33;;;;;7.38;74.21;99056.91;4914876;28;45453;-85
2021/11/26 15:34:05;;;;;;;;;7.00;5.33;;;;;7.33;74.05;99045.44;4913542;28;45894;-84
2021/11/26 15:36:31;;;;;;;;;12.67;8.00;;;;;7.26;74.00;99036.53;4915774;28;48310;-85
2021/11/26 15:38:58;;;;;;;;;5.00;5.00;;;;;7.28;73.98;99027.84;4932980;28;45543;-83
2021/11/26 15:41:24;;;;;;;;;7.00;6.00;;;;;7.23;73.32;99015.56;4948000;28;45598;-84
2021/11/26 15:43:49;;;;;;;;;7.67;5.33;;;;;7.26;74.27;99009.56;4950029;28;45501;-84
2021/11/26 15:46:15;;;;;;;;;6.67;6.67;;;;;7.23;73.79;99002.50;4933448;28;46148;-84
2021/11/26 15:48:40;;;;;;;;;12.50;11.50;;;;;7.26;74.14;98997.41;4952192;28;45431;-84
2021/11/26 15:51:06;;;;;;;;;10.00;8.50;;;;;7.28;73.35;98996.53;4955113;28;45299;-87
2021/11/26 15:53:36;;;;;;;;;8.00;8.00;;;;;7.26;74.09;98988.69;4950906;28;45492;-85
2021/11/26 15:56:04;;;;;;;;;4.67;4.67;;;;;7.28;74.00;98979.16;4951280;28;45676;-86
2021/11/26 15:58:30;;;;;;;;;4.25;4.25;;;;;7.19;73.92;98968.47;4951457;28;45500;-87
2021/11/26 16:00:56;;;;;;;;;5.33;4.00;;;;;7.22;73.75;98976.34;4951747;28;45331;-86
2021/11/26 16:03:21;;;;;;;;;7.67;7.00;;;;;7.22;74.22;98961.59;4951457;28;45859;-87
2021/11/26 16:05:46;;;;;;;;;7.00;6.33;;;;;7.23;73.41;98962.47;4949768;28;45637;-86
2021/11/26 16:08:13;;;;;;;;;6.33;3.67;;;;;7.20;73.36;98965.88;4948558;28;45493;-86
2021/11/26 16:10:38;;;;;;;;;4.67;4.67;;;;;7.23;74.06;98952.03;4941644;28;45415;-87
2021/11/26 16:13:03;;;;;;;;;4.00;3.33;;;;;7.23;74.20;98946.81;4939033;28;47597;-87
2021/11/26 16:15:29;;;;;;;;;4.67;4.67;;;;;7.22;73.59;98937.22;4942358;28;47574;-86
2021/11/26 16:17:54;;;;;;;;;6.00;3.33;;;;;7.22;73.81;98919.81;4958852;28;45572;-86
2021/11/26 16:20:20;;;;;;;;;3.67;3.67;;;;;7.25;73.72;98919.94;4960810;28;45403;-87
2021/11/26 16:22:45;;;;;;;;;7.00;5.00;;;;;7.26;73.64;98907.78;4952471;28;45502;-88
2021/11/26 16:25:11;;;;;;;;;6.00;4.33;;;;;7.19;73.65;98896.25;4959892;28;47236;-89
2021/11/26 16:27:45;;;;;;;;;7.67;6.00;;;;;7.20;73.67;98894.53;4977766;28;45243;-85
2021/11/26 16:30:12;;;;;;;;;4.67;4.33;;;;;7.22;73.56;98895.44;4974167;28;45331;-87
2021/11/26 16:32:46;;;;;;;;;4.67;4.67;;;;;7.22;73.70;98896.34;4961353;28;45320;-86
2021/11/26 16:37:49;;;;;;;;;3.67;3.00;;;;;7.26;73.33;98895.59;4975192;28;45571;-90
2021/11/26 16:40:17;;;;;;;;;7.50;3.50;;;;;7.24;72.60;98888.56;4972098;28;45352;-88
2021/11/26 16:42:42;;;;;;;;;2.00;2.00;;;;;7.19;73.11;98872.75;4950729;28;44748;-89
2021/11/26 16:45:10;;;;;;;;;3.25;3.00;;;;;7.15;73.11;98871.81;4946355;28;46282;-87
2021/11/26 16:47:36;;;;;;;;;5.00;4.00;;;;;7.14;72.82;98867.41;4968274;28;45288;-87
2021/11/26 16:50:03;;;;;;;;;3.50;2.75;;;;;7.18;73.01;98870.13;4961586;28;45311;-87
2021/11/26 16:52:29;;;;;;;;;4.00;4.00;;;;;7.15;73.61;98860.47;4974150;28;45611;-88
2021/11/26 16:54:55;;;;;;;;;4.33;2.00;;;;;7.11;73.01;98849.06;4958489;28;46065;-87
2021/11/26 16:57:22;;;;;;;;;4.00;3.00;;;;;7.16;72.75;98862.25;4980914;28;44731;-89
2021/11/26 16:59:47;;;;;;;;;6.00;4.33;;;;;7.18;72.68;98857.97;4954860;28;45582;-86
2021/11/26 17:02:14;;;;;;;;;3.00;2.00;;;;;7.18;72.99;98849.25;4976062;28;45394;-88
2021/11/26 17:04:39;;;;;;;;;7.50;7.00;;;;;7.20;73.30;98839.72;4930629;28;47414;-88
2021/11/26 17:07:05;;;;;;;;;1.00;1.00;;;;;7.21;72.90;98849.34;4957371;28;45270;-87
2021/11/26 17:09:32;;;;;;;;;7.00;4.00;;;;;7.19;72.53;98851.03;4926548;28;44749;-89